Time;durP1;ratioP1;P1;durP2;ratioP2;P2;SDS_P1;SDS_P2;PMS_P1;PMS_P2;Temp;Humidity;BMP_temperature;BMP_pressure;BME280_temperature;BME280_humidity;BME280_pressure;Samples;Min_cycle;Max_cycle;Signal;HPM_P1;HPM_P2
2021/08/17 00:04:39;;;;;;;17.75;3.45;;;;;;;11.68;83.83;101521.34;10413315;28;20442;-81
2021/08/17 00:09:41;;;;;;;12.38;3.17;;;;;;;11.61;83.97;101524.66;10413602;28;20059;-82
2021/08/17 00:14:42;;;;;;;13.00;3.75;;;;;;;11.59;83.36;101521.16;10386706;28;20045;-81
2021/08/17 00:19:46;;;;;;;8.18;3.03;;;;;;;11.57;83.98;101523.72;10401553;28;20045;-81
2021/08/17 00:24:48;;;;;;;9.20;2.95;;;;;;;11.51;84.43;101522.69;10400736;28;20084;-81
2021/08/17 00:29:51;;;;;;;9.27;2.47;;;;;;;11.44;84.21;101523.41;10391501;28;20418;-84
2021/08/17 00:34:52;;;;;;;8.25;3.25;;;;;;;11.46;84.07;101526.91;10413411;28;20107;-80
2021/08/17 00:39:54;;;;;;;11.80;3.30;;;;;;;11.41;84.01;101532.88;10409297;28;20058;-79
2021/08/17 00:44:55;;;;;;;9.15;3.22;;;;;;;11.43;84.43;101535.50;10423670;28;20526;-80
2021/08/17 00:49:57;;;;;;;17.90;3.53;;;;;;;11.40;84.91;101520.78;10406382;28;20057;-80
2021/08/17 00:54:58;;;;;;;16.35;4.00;;;;;;;11.41;84.42;101513.88;10438694;28;20048;-80
2021/08/17 01:00:00;;;;;;;7.25;3.50;;;;;;;11.34;84.24;101517.13;10420115;28;20052;-81
2021/08/17 01:05:03;;;;;;;11.48;3.70;;;;;;;11.29;84.89;101523.97;10453969;28;20060;-80
2021/08/17 01:10:07;;;;;;;9.93;2.08;;;;;;;11.30;84.58;101516.22;10406338;28;20497;-81
2021/08/17 01:15:11;;;;;;;12.15;4.53;;;;;;;11.24;84.96;101521.25;10406267;28;20057;-82
2021/08/17 01:20:15;;;;;;;8.05;3.28;;;;;;;11.17;85.28;101515.88;10453008;28;20057;-80
2021/08/17 01:25:17;;;;;;;14.30;3.75;;;;;;;11.14;85.74;101512.41;10404276;28;20052;-80
2021/08/17 01:30:18;;;;;;;9.30;3.30;;;;;;;11.09;85.95;101519.19;10410385;28;20045;-80
2021/08/17 01:35:20;;;;;;;15.50;3.53;;;;;;;11.15;86.58;101518.44;10406242;28;20052;-81
2021/08/17 01:40:21;;;;;;;10.05;3.67;;;;;;;11.13;86.72;101526.19;10409942;28;20054;-81
2021/08/17 01:45:23;;;;;;;8.85;2.90;;;;;;;11.07;87.50;101531.22;10403541;28;20049;-81
2021/08/17 01:50:25;;;;;;;11.95;3.70;;;;;;;11.02;87.69;101539.72;10436685;28;20498;-81
2021/08/17 01:55:26;;;;;;;10.73;4.07;;;;;;;11.05;88.42;101540.66;10416143;28;20103;-81
2021/08/17 02:00:28;;;;;;;11.50;3.70;;;;;;;10.99;88.76;101548.28;10405443;28;20376;-81
2021/08/17 02:05:30;;;;;;;9.32;4.13;;;;;;;10.93;88.74;101552.44;10403861;28;20539;-80
2021/08/17 02:10:31;;;;;;;11.82;4.07;;;;;;;10.95;89.57;101556.81;10409152;28;20508;-80
2021/08/17 02:15:33;;;;;;;6.15;3.22;;;;;;;10.88;88.92;101550.59;10405605;28;20046;-81
2021/08/17 02:20:34;;;;;;;8.30;3.78;;;;;;;10.86;89.67;101552.28;10391579;28;20057;-83
2021/08/17 02:25:36;;;;;;;7.63;3.70;;;;;;;10.80;90.26;101541.78;10403152;28;20080;-81
2021/08/17 02:30:37;;;;;;;8.30;3.78;;;;;;;10.84;89.98;101540.16;10410784;28;20065;-81
2021/08/17 02:35:40;;;;;;;8.18;3.00;;;;;;;10.80;90.14;101540.91;10411978;28;20041;-81
2021/08/17 02:40:42;;;;;;;7.53;3.65;;;;;;;10.79;90.61;101534.84;10416085;28;20057;-81
2021/08/17 02:45:43;;;;;;;8.80;3.22;;;;;;;10.81;90.46;101535.75;10416891;28;20076;-83
2021/08/17 02:50:46;;;;;;;7.65;3.40;;;;;;;10.86;91.17;101538.47;10448902;28;20056;-81
2021/08/17 02:55:47;;;;;;;8.60;3.10;;;;;;;10.90;90.63;101540.31;10403083;28;20049;-81
2021/08/17 03:00:49;;;;;;;5.00;3.20;;;;;;;10.82;90.86;101531.44;10415806;28;20111;-82
2021/08/17 03:05:51;;;;;;;9.45;3.60;;;;;;;10.92;90.72;101525.66;10402528;28;20124;-80
2021/08/17 03:10:52;;;;;;;5.88;2.70;;;;;;;10.95;90.56;101528.34;10415951;28;20064;-81
2021/08/17 03:15:54;;;;;;;7.63;2.97;;;;;;;11.01;90.72;101541.44;10415440;28;20443;-83
2021/08/17 03:20:58;;;;;;;6.50;2.80;;;;;;;11.02;91.06;101524.19;10414658;28;20064;-81
2021/08/17 03:26:00;;;;;;;7.78;3.08;;;;;;;11.07;91.32;101520.88;10416114;28;20053;-81
2021/08/17 03:31:01;;;;;;;9.60;3.78;;;;;;;11.12;91.39;101520.97;10402651;28;20064;-82
2021/08/17 03:36:07;;;;;;;12.15;4.80;;;;;;;11.11;91.51;101527.84;10427597;28;20092;-81
2021/08/17 03:41:09;;;;;;;9.43;4.10;;;;;;;11.16;92.15;101522.78;10411366;28;20057;-82
2021/08/17 03:46:10;;;;;;;10.43;4.07;;;;;;;11.33;92.54;101518.84;10414032;28;20046;-82
2021/08/17 03:51:12;;;;;;;7.63;4.25;;;;;;;11.29;93.03;101518.78;10409808;28;20057;-82
2021/08/17 03:56:14;;;;;;;13.35;3.97;;;;;;;11.35;93.60;101531.88;10401575;28;20045;-81
2021/08/17 04:01:17;;;;;;;8.10;3.85;;;;;;;11.37;93.85;101525.88;10400197;28;20056;-81
2021/08/17 04:06:19;;;;;;;7.55;3.53;;;;;;;11.42;93.87;101531.16;10405779;28;20132;-81
2021/08/17 04:11:21;;;;;;;11.90;4.68;;;;;;;11.52;94.37;101534.84;10395624;28;20401;-81
2021/08/17 04:16:22;;;;;;;8.80;3.80;;;;;;;11.57;94.32;101531.50;10413315;28;20057;-81
2021/08/17 04:21:24;;;;;;;8.40;5.05;;;;;;;11.52;94.33;101529.66;10414195;28;20045;-82
2021/08/17 04:26:26;;;;;;;8.32;4.25;;;;;;;11.67;94.42;101538.63;10413679;28;20064;-81
2021/08/17 04:31:28;;;;;;;11.30;5.40;;;;;;;11.61;95.12;101532.44;10414716;28;20060;-81
2021/08/17 04:36:29;;;;;;;9.32;4.65;;;;;;;11.68;94.56;101530.03;10421898;28;20556;-81
2021/08/17 04:41:31;;;;;;;12.40;4.72;;;;;;;11.73;94.70;101517.13;10419042;28;20092;-82
2021/08/17 04:46:32;;;;;;;10.18;5.13;;;;;;;11.76;94.33;101527.59;10416394;28;20053;-82
2021/08/17 04:51:34;;;;;;;10.07;5.13;;;;;;;11.78;94.17;101532.78;10421115;28;20053;-82
2021/08/17 04:56:36;;;;;;;13.65;5.97;;;;;;;11.92;94.12;101526.22;10396927;28;20045;-82
2021/08/17 05:01:37;;;;;;;8.95;4.28;;;;;;;12.07;93.34;101542.06;10406959;28;20092;-81
2021/08/17 05:06:39;;;;;;;6.78;4.93;;;;;;;11.99;94.21;101542.78;10421061;28;20107;-82
2021/08/17 05:11:41;;;;;;;11.63;5.88;;;;;;;12.16;93.41;101550.03;10421550;28;20057;-81
2021/08/17 05:16:42;;;;;;;16.02;6.68;;;;;;;12.21;93.59;101565.69;10419610;28;20104;-81
2021/08/17 05:21:44;;;;;;;13.02;7.90;;;;;;;12.17;95.04;101558.69;10452203;28;20046;-81
2021/08/17 05:26:46;;;;;;;18.80;9.00;;;;;;;12.27;96.01;101560.63;10406006;28;20119;-81
2021/08/17 05:31:47;;;;;;;16.95;10.57;;;;;;;12.33;97.20;101560.75;10419145;28;20063;-81
2021/08/17 05:36:49;;;;;;;23.50;13.25;;;;;;;12.45;98.50;101563.56;10407606;28;20055;-82
2021/08/17 05:41:50;;;;;;;29.27;15.23;;;;;;;12.71;98.33;101564.06;10418633;28;20060;-82
2021/08/17 05:46:52;;;;;;;29.88;17.08;;;;;;;12.93;98.58;101556.59;10415073;28;20049;-83
2021/08/17 05:51:55;;;;;;;36.95;17.50;;;;;;;12.95;99.07;101552.34;10418375;28;20056;-83
2021/08/17 05:56:58;;;;;;;37.45;18.55;;;;;;;13.06;99.41;101547.31;10419934;28;20398;-81
2021/08/17 06:02:01;;;;;;;31.80;18.08;;;;;;;13.07;100.00;101528.28;10404627;28;20045;-82
2021/08/17 06:07:03;;;;;;;45.40;20.90;;;;;;;13.16;100.00;101538.78;10412714;28;20050;-81
2021/08/17 06:12:05;;;;;;;42.85;20.35;;;;;;;13.25;99.80;101544.16;10407840;28;20052;-82
2021/08/17 06:17:07;;;;;;;36.95;19.83;;;;;;;13.37;99.46;101554.75;10418999;28;20433;-82
2021/08/17 06:22:09;;;;;;;49.10;22.70;;;;;;;13.65;99.26;101553.41;10416707;28;20524;-83
2021/08/17 06:27:10;;;;;;;44.03;23.52;;;;;;;13.93;98.86;101536.44;10417347;28;20095;-83
2021/08/17 06:32:23;;;;;;;49.95;21.73;;;;;;;13.80;98.70;101534.53;10403857;28;20414;-83
2021/08/17 06:37:25;;;;;;;47.92;21.50;;;;;;;13.82;98.70;101535.44;10428056;28;20494;-84
2021/08/17 06:42:27;;;;;;;47.10;23.80;;;;;;;13.85;98.37;101537.22;10416607;28;20053;-85
2021/08/17 06:47:28;;;;;;;42.70;22.20;;;;;;;13.98;98.22;101528.69;10416856;28;20103;-83
2021/08/17 06:52:30;;;;;;;47.63;24.25;;;;;;;14.04;97.84;101521.81;10402084;28;20049;-83
2021/08/17 06:57:32;;;;;;;36.97;21.52;;;;;;;14.08;98.10;101512.34;10403897;28;20128;-83
2021/08/17 07:02:34;;;;;;;38.35;19.90;;;;;;;14.16;98.48;101531.50;10415414;28;20050;-86
2021/08/17 07:07:55;;;;;;;42.65;22.00;;;;;;;14.17;98.53;101527.16;10415445;28;20437;-85
2021/08/17 07:12:57;;;;;;;43.05;20.63;;;;;;;14.21;98.26;101552.38;10404794;28;20045;-84
2021/08/17 07:17:59;;;;;;;41.65;21.05;;;;;;;14.37;97.78;101554.28;10402426;28;20539;-84
2021/08/17 07:23:00;;;;;;;36.42;18.90;;;;;;;14.49;97.54;101536.22;10407248;28;20374;-83
2021/08/17 07:28:03;;;;;;;40.30;20.50;;;;;;;14.55;96.98;101531.06;10399991;28;20075;-82
2021/08/17 07:33:04;;;;;;;36.55;18.40;;;;;;;14.67;96.44;101532.06;10397706;28;20119;-82
2021/08/17 07:38:06;;;;;;;30.63;16.92;;;;;;;14.74;95.79;101537.31;10412002;28;20060;-86
2021/08/17 07:43:07;;;;;;;34.85;18.75;;;;;;;15.01;95.50;101531.47;10409973;28;20049;-84
2021/08/17 07:48:09;;;;;;;36.28;17.52;;;;;;;15.26;93.52;101531.63;10413657;28;20050;-82
2021/08/17 07:53:11;;;;;;;30.45;14.85;;;;;;;15.32;93.42;101539.53;10405577;28;20060;-82
2021/08/17 07:58:13;;;;;;;34.55;16.50;;;;;;;15.21;93.60;101533.38;10431736;28;20050;-82
2021/08/17 08:03:14;;;;;;;32.38;14.93;;;;;;;15.40;92.89;101542.16;10401146;28;20053;-84
2021/08/17 08:08:16;;;;;;;29.15;14.45;;;;;;;15.51;91.70;101530.94;10404579;28;20072;-84
2021/08/17 08:13:18;;;;;;;29.83;13.93;;;;;;;15.46;91.30;101529.16;10439754;28;20053;-86
2021/08/17 08:18:20;;;;;;;27.67;14.25;;;;;;;15.63;92.00;101527.56;10420088;28;20049;-85
2021/08/17 08:23:21;;;;;;;23.20;13.20;;;;;;;15.67;90.27;101524.09;10412175;28;20055;-85
2021/08/17 08:28:23;;;;;;;22.85;12.85;;;;;;;15.57;90.48;101517.06;10412754;28;20065;-83
2021/08/17 08:33:27;;;;;;;25.85;13.65;;;;;;;15.52;91.25;101517.03;10410581;28;20049;-85
2021/08/17 08:38:28;;;;;;;28.98;12.48;;;;;;;15.47;91.09;101505.69;10421464;28;20049;-84
2021/08/17 08:43:30;;;;;;;24.20;12.48;;;;;;;15.38;90.18;101510.88;10421067;28;20050;-83
2021/08/17 08:48:33;;;;;;;19.88;12.30;;;;;;;15.37;90.26;101516.94;10394069;28;20049;-85
2021/08/17 08:53:35;;;;;;;26.75;13.52;;;;;;;15.40;89.82;101532.59;10424499;28;20049;-83
2021/08/17 08:58:37;;;;;;;22.55;13.35;;;;;;;15.35;89.58;101531.72;10419409;28;20045;-86
2021/08/17 09:03:48;;;;;;;13.13;8.00;;;;;;;15.41;89.43;101528.25;10432175;28;20124;-84
2021/08/17 09:09:16;;;;;;;25.27;12.88;;;;;;;15.53;88.67;101533.53;10429435;28;20511;-83
2021/08/17 09:14:30;;;;;;;19.83;11.73;;;;;;;15.55;88.13;101529.22;10426128;28;20058;-82
2021/08/17 09:19:37;;;;;;;23.58;12.07;;;;;;;15.71;87.90;101536.28;10418843;28;20058;-86
2021/08/17 09:24:39;;;;;;;22.90;11.98;;;;;;;15.75;85.73;101514.56;10417507;28;20053;-79
2021/08/17 09:29:49;;;;;;;17.48;11.23;;;;;;;15.93;85.63;101520.72;10418409;28;20064;-83
2021/08/17 09:34:54;;;;;;;17.30;11.40;;;;;;;16.11;82.97;101521.66;10405549;28;20072;-83
2021/08/17 09:39:57;;;;;;;21.27;11.63;;;;;;;16.29;82.95;101518.22;10418207;28;20045;-83
2021/08/17 09:45:16;;;;;;;16.33;8.43;;;;;;;16.11;82.54;101512.94;10419003;28;20053;-84
2021/08/17 09:50:22;;;;;;;16.73;10.70;;;;;;;16.04;83.10;101490.31;10418669;28;20053;-85
2021/08/17 09:55:24;;;;;;;16.38;8.27;;;;;;;15.99;82.75;101489.41;10395086;28;20053;-83
2021/08/17 10:00:25;;;;;;;16.00;9.45;;;;;;;15.89;82.20;101498.97;10404831;28;20050;-83
2021/08/17 10:05:27;;;;;;;13.85;9.15;;;;;;;15.94;82.62;101520.75;10403357;28;20053;-82
2021/08/17 10:10:29;;;;;;;13.65;8.68;;;;;;;15.90;82.63;101516.38;10410216;28;20056;-82
2021/08/17 10:15:30;;;;;;;20.52;9.50;;;;;;;15.95;82.83;101503.34;10382426;28;20050;-82
2021/08/17 10:20:33;;;;;;;13.57;8.48;;;;;;;16.24;82.67;101486.00;10431598;28;20049;-81
2021/08/17 10:25:57;;;;;;;17.25;7.25;;;;;;;16.30;81.02;101493.00;10394617;28;20127;-80
2021/08/17 10:31:12;;;;;;;8.23;5.88;;;;;;;16.34;77.00;101494.75;10403352;28;20414;-81
2021/08/17 10:36:35;;;;;;;7.82;5.70;;;;;;;16.06;75.87;101491.19;10417112;28;20100;-87
2021/08/17 10:41:37;;;;;;;6.72;4.13;;;;;;;16.31;77.11;101492.13;10389500;28;20521;-86
2021/08/17 10:46:42;;;;;;;7.75;5.30;;;;;;;16.25;74.89;101494.72;10436442;28;20050;-85
2021/08/17 10:51:50;;;;;;;9.73;4.20;;;;;;;16.22;75.41;101492.09;10416050;28;20057;-79
2021/08/17 10:56:51;;;;;;;6.57;4.45;;;;;;;16.03;76.82;101501.63;10416657;28;20045;-79
2021/08/17 11:01:53;;;;;;;9.02;4.57;;;;;;;15.88;76.74;101499.81;10416530;28;20053;-85
2021/08/17 11:06:57;;;;;;;8.05;4.75;;;;;;;15.80;77.79;101514.59;10415863;28;20076;-83
2021/08/17 11:12:06;;;;;;;7.28;5.03;;;;;;;15.71;79.30;101507.56;10416229;28;20132;-85
2021/08/17 11:17:09;;;;;;;8.30;6.25;;;;;;;15.60;81.59;101512.75;10401627;28;20048;-84
2021/08/17 11:22:13;;;;;;;6.93;3.95;;;;;;;15.48;81.00;101502.22;10418459;28;20050;-86
2021/08/17 11:27:24;;;;;;;6.63;5.15;;;;;;;15.44;81.79;101494.41;10375658;28;20536;-85
2021/08/17 11:32:32;;;;;;;3.97;2.63;;;;;;;15.26;80.75;101511.69;10446741;28;20524;-82
2021/08/17 11:37:35;;;;;;;8.65;4.78;;;;;;;15.27;83.51;101508.19;10414236;28;20132;-83
2021/08/17 11:42:40;;;;;;;6.00;4.13;;;;;;;14.75;86.99;101512.16;10402186;28;20055;-89
2021/08/17 11:47:43;;;;;;;6.00;4.00;;;;;;;14.60;90.27;101514.63;10407523;28;20049;-84
2021/08/17 11:52:50;;;;;;;5.68;3.83;;;;;;;14.40;89.99;101517.88;10400793;28;20136;-83
2021/08/17 11:57:57;;;;;;;6.60;4.72;;;;;;;14.40;91.41;101515.25;10399645;28;20524;-83
2021/08/17 12:03:05;;;;;;;10.40;4.35;;;;;;;14.26;93.70;101527.28;10412264;28;20049;-84
2021/08/17 12:08:11;;;;;;;8.50;5.30;;;;;;;14.18;96.63;101516.78;10413999;28;20454;-87
2021/08/17 12:13:16;;;;;;;10.13;5.53;;;;;;;13.91;98.84;101525.16;10417017;28;20057;-86
2021/08/17 12:18:19;;;;;;;8.63;5.27;;;;;;;14.09;100.00;101521.88;10372853;28;20589;-86
2021/08/17 12:23:38;;;;;;;8.18;5.70;;;;;;;14.00;100.00;101514.84;10412514;28;20136;-85
2021/08/17 12:28:42;;;;;;;8.27;5.45;;;;;;;13.91;100.00;101512.16;10408676;28;20059;-86
2021/08/17 12:33:53;;;;;;;9.52;5.68;;;;;;;13.82;100.00;101517.22;10404623;28;20065;-89
2021/08/17 12:39:06;;;;;;;9.00;5.90;;;;;;;13.82;100.00;101501.63;10422030;28;20042;-90
2021/08/17 12:44:23;;;;;;;9.95;6.30;;;;;;;13.98;100.00;101511.34;10436314;28;20057;-88
2021/08/17 12:49:48;;;;;;;9.40;6.57;;;;;;;14.00;100.00;101514.84;10418445;28;20085;-91
2021/08/17 12:54:52;;;;;;;13.13;6.60;;;;;;;13.97;100.00;101508.75;10422563;28;20057;-90
2021/08/17 12:59:56;;;;;;;7.47;6.40;;;;;;;14.16;100.00;101502.00;10409680;28;20053;-89
2021/08/17 13:04:58;;;;;;;8.02;6.53;;;;;;;14.16;100.00;101508.06;10422056;28;20413;-88
2021/08/17 13:10:02;;;;;;;10.35;7.32;;;;;;;14.19;100.00;101508.13;10421463;28;20115;-88
2021/08/17 13:15:04;;;;;;;10.07;8.02;;;;;;;14.25;100.00;101497.78;10410566;28;20084;-90
2021/08/17 13:20:08;;;;;;;6.85;5.95;;;;;;;14.09;100.00;101489.78;10409804;28;20493;-91
2021/08/17 13:25:09;;;;;;;10.82;6.95;;;;;;;14.22;100.00;101487.31;10422599;28;20065;-86
2021/08/17 13:30:12;;;;;;;8.73;6.57;;;;;;;14.15;100.00;101482.06;10421096;28;20131;-85
2021/08/17 13:35:13;;;;;;;8.13;6.38;;;;;;;13.93;100.00;101475.75;10408625;28;20125;-79
2021/08/17 13:40:15;;;;;;;9.32;6.72;;;;;;;13.96;100.00;101475.78;10412047;28;20050;-82
2021/08/17 13:45:17;;;;;;;12.18;7.50;;;;;;;14.09;100.00;101474.19;10413061;28;20068;-81
2021/08/17 13:50:18;;;;;;;8.43;7.43;;;;;;;13.96;100.00;101460.19;10416672;28;20398;-80
2021/08/17 13:55:20;;;;;;;8.32;6.82;;;;;;;14.12;100.00;101461.19;10404730;28;20057;-81
2021/08/17 14:00:22;;;;;;;10.50;7.47;;;;;;;14.15;100.00;101463.84;10404319;28;20508;-87
2021/08/17 14:05:23;;;;;;;8.70;7.80;;;;;;;14.17;100.00;101456.91;10404094;28;20060;-84
2021/08/17 14:10:26;;;;;;;8.23;6.60;;;;;;;14.16;100.00;101463.84;10418471;28;20049;-88
2021/08/17 14:15:27;;;;;;;7.38;6.10;;;;;;;14.27;100.00;101462.22;10385760;28;20508;-91
2021/08/17 14:20:29;;;;;;;4.85;4.28;;;;;;;14.22;100.00;101457.81;10443236;28;20049;-89
2021/08/17 14:25:36;;;;;;;5.93;4.95;;;;;;;14.17;100.00;101449.09;10417384;28;20053;-88
2021/08/17 14:30:37;;;;;;;8.30;4.85;;;;;;;14.16;100.00;101444.75;10404904;28;20483;-85
2021/08/17 14:35:43;;;;;;;6.00;4.70;;;;;;;14.03;100.00;101439.44;10402736;28;20513;-81
2021/08/17 14:40:45;;;;;;;6.45;4.85;;;;;;;13.91;100.00;101439.31;10401016;28;20072;-79
2021/08/17 14:45:50;;;;;;;4.93;4.53;;;;;;;13.90;100.00;101434.97;10412816;28;20414;-81
2021/08/17 14:50:52;;;;;;;7.78;6.97;;;;;;;13.88;100.00;101435.78;10413011;28;20567;-80
2021/08/17 14:55:53;;;;;;;9.43;8.15;;;;;;;14.02;100.00;101440.28;10415775;28;20084;-81
2021/08/17 15:00:55;;;;;;;8.88;7.78;;;;;;;13.96;100.00;101440.22;10408342;28;20054;-83
2021/08/17 15:05:57;;;;;;;11.55;10.35;;;;;;;13.94;100.00;101439.31;10410183;28;20445;-85
2021/08/17 15:10:58;;;;;;;11.73;9.50;;;;;;;13.84;100.00;101434.91;10403327;28;20054;-86
2021/08/17 15:16:00;;;;;;;9.63;8.68;;;;;;;13.82;100.00;101430.53;10387090;28;20052;-84
2021/08/17 15:21:02;;;;;;;9.57;7.82;;;;;;;13.79;100.00;101432.25;10419353;28;20144;-84
2021/08/17 15:26:03;;;;;;;7.72;7.03;;;;;;;13.83;100.00;101427.94;10431578;28;20411;-85
2021/08/17 15:31:06;;;;;;;7.85;6.65;;;;;;;13.79;100.00;101416.66;10409730;28;20046;-81
2021/08/17 15:36:08;;;;;;;7.15;6.43;;;;;;;13.88;100.00;101410.66;10409172;28;20053;-81
2021/08/17 15:41:10;;;;;;;5.28;4.78;;;;;;;13.90;100.00;101411.56;10446298;28;20048;-84
2021/08/17 15:46:11;;;;;;;5.47;4.97;;;;;;;13.93;100.00;101415.91;10406133;28;20056;-84
2021/08/17 15:51:13;;;;;;;5.05;4.55;;;;;;;13.91;100.00;101402.03;10385190;28;20073;-83
2021/08/17 15:56:15;;;;;;;4.70;2.88;;;;;;;13.80;100.00;101407.09;10402137;28;20375;-84
2021/08/17 16:01:17;;;;;;;4.25;3.38;;;;;;;13.89;100.00;101408.91;10370816;28;20069;-80
2021/08/17 16:06:19;;;;;;;4.72;4.30;;;;;;;13.87;100.00;101398.50;10429559;28;20049;-80
2021/08/17 16:11:21;;;;;;;5.10;4.65;;;;;;;13.84;100.00;101384.59;10412110;28;20060;-81
2021/08/17 16:16:22;;;;;;;7.50;6.80;;;;;;;13.81;100.00;101388.03;10398131;28;20421;-82
2021/08/17 16:21:24;;;;;;;5.70;5.20;;;;;;;13.73;100.00;101380.19;10402039;28;20046;-81
2021/08/17 16:26:25;;;;;;;6.00;5.40;;;;;;;13.76;100.00;101372.38;10371142;28;20060;-81
2021/08/17 16:31:31;;;;;;;5.40;4.90;;;;;;;13.83;100.00;101375.91;10418432;28;20045;-82
2021/08/17 16:36:50;;;;;;;6.28;4.68;;;;;;;13.77;100.00;101370.66;10384440;28;20510;-80
2021/08/17 16:42:03;;;;;;;6.10;5.50;;;;;;;13.72;100.00;101375.81;10408249;28;20068;-82
2021/08/17 16:47:06;;;;;;;6.63;5.00;;;;;;;13.78;100.00;101377.59;10426249;28;20494;-78
2021/08/17 16:52:24;;;;;;;4.97;4.47;;;;;;;13.75;100.00;101377.56;10407321;28;20054;-81
2021/08/17 16:57:26;;;;;;;5.25;4.75;;;;;;;13.76;100.00;101368.91;10386175;28;20498;-80
2021/08/17 17:02:28;;;;;;;5.40;4.93;;;;;;;13.85;100.00;101369.03;10379253;28;20054;-81
2021/08/17 17:07:30;;;;;;;4.45;4.05;;;;;;;13.81;100.00;101367.25;10386542;28;20232;-82
2021/08/17 17:12:31;;;;;;;4.43;4.05;;;;;;;13.90;100.00;101366.47;10396098;28;20049;-80
2021/08/17 17:17:35;;;;;;;6.22;5.00;;;;;;;13.93;100.00;101369.09;10394096;28;20124;-82
2021/08/17 17:22:45;;;;;;;7.35;5.40;;;;;;;13.95;100.00;101355.22;10392856;28;20049;-82
2021/08/17 17:27:47;;;;;;;6.53;5.90;;;;;;;13.96;100.00;101358.72;10410849;28;20064;-82
2021/08/17 17:32:50;;;;;;;5.55;5.05;;;;;;;14.01;100.00;101352.69;10409997;28;20310;-82
2021/08/17 17:37:51;;;;;;;7.93;7.13;;;;;;;13.91;100.00;101353.47;10411180;28;20422;-83
2021/08/17 17:42:53;;;;;;;8.43;7.57;;;;;;;13.84;100.00;101351.69;10400169;28;20049;-85
2021/08/17 17:47:55;;;;;;;9.38;7.65;;;;;;;13.82;100.00;101348.16;10444342;28;20072;-81
2021/08/17 17:52:57;;;;;;;8.93;8.13;;;;;;;13.98;100.00;101342.25;10414336;28;20524;-81
2021/08/17 17:57:59;;;;;;;8.40;7.60;;;;;;;13.93;100.00;101343.06;10414648;28;20537;-81
2021/08/17 18:03:02;;;;;;;8.50;7.72;;;;;;;13.94;100.00;101343.06;10414189;28;20505;-83
2021/08/17 18:08:04;;;;;;;10.88;9.82;;;;;;;13.88;100.00;101335.22;10412242;28;20043;-81
2021/08/17 18:13:07;;;;;;;5.88;4.82;;;;;;;13.97;100.00;101334.44;10412273;28;20505;-82
2021/08/17 18:18:08;;;;;;;9.38;8.48;;;;;;;14.00;100.00;101327.53;10435067;28;20052;-80
2021/08/17 18:23:10;;;;;;;9.75;8.93;;;;;;;14.03;100.00;101342.31;10415777;28;20057;-81
2021/08/17 18:28:35;;;;;;;9.38;8.57;;;;;;;13.99;100.00;101337.91;10412059;28;20120;-81
2021/08/17 18:33:47;;;;;;;10.98;9.88;;;;;;;14.10;100.00;101328.47;10412418;28;20052;-81
2021/08/17 18:38:54;;;;;;;10.70;7.85;;;;;;;14.10;100.00;101332.81;10414738;28;20528;-82
2021/08/17 18:44:04;;;;;;;9.80;8.90;;;;;;;14.09;100.00;101331.06;10414777;28;20047;-82
2021/08/17 18:49:06;;;;;;;10.93;8.82;;;;;;;14.08;100.00;101326.72;10413672;28;20053;-83
2021/08/17 18:54:07;;;;;;;10.57;9.55;;;;;;;14.09;100.00;101328.47;10410736;28;20119;-81
2021/08/17 18:59:09;;;;;;;10.52;9.38;;;;;;;14.12;100.00;101336.28;10411418;28;20052;-81
2021/08/17 19:04:10;;;;;;;10.25;9.35;;;;;;;14.10;100.00;101344.09;10413538;28;20072;-82
2021/08/17 19:09:12;;;;;;;10.30;9.25;;;;;;;14.15;100.00;101341.53;10412054;28;20478;-82
2021/08/17 19:14:14;;;;;;;7.75;6.97;;;;;;;14.12;100.00;101357.09;10410922;28;20088;-80
2021/08/17 19:19:15;;;;;;;9.13;8.30;;;;;;;14.16;100.00;101357.16;10415819;28;20375;-80
2021/08/17 19:24:17;;;;;;;7.20;6.50;;;;;;;14.13;100.00;101356.28;10410382;28;20568;-79
2021/08/17 19:29:19;;;;;;;6.53;5.70;;;;;;;14.15;100.00;101360.63;10420349;28;20555;-81
2021/08/17 19:34:22;;;;;;;5.32;4.82;;;;;;;14.14;100.00;101358.00;10414045;28;20057;-80
2021/08/17 19:39:25;;;;;;;6.57;6.00;;;;;;;14.18;100.00;101342.44;10414914;28;20053;-79
2021/08/17 19:44:26;;;;;;;6.65;6.05;;;;;;;14.18;100.00;101359.75;10414457;28;20057;-79
2021/08/17 19:49:28;;;;;;;6.32;5.43;;;;;;;14.15;100.00;101362.34;10415704;28;20680;-80
2021/08/17 19:54:29;;;;;;;7.22;4.13;;;;;;;14.17;100.00;101364.09;10414027;28;20563;-80
2021/08/17 19:59:31;;;;;;;5.20;4.22;;;;;;;14.20;100.00;101376.28;10412695;28;20410;-81
2021/08/17 20:04:33;;;;;;;3.97;3.63;;;;;;;14.18;100.00;101375.38;10400091;28;20092;-81
2021/08/17 20:09:35;;;;;;;4.50;4.10;;;;;;;14.23;100.00;101373.69;10377733;28;20053;-80
2021/08/17 20:14:38;;;;;;;4.47;4.07;;;;;;;14.21;100.00;101380.63;10410851;28;20053;-81
2021/08/17 20:19:41;;;;;;;3.63;3.33;;;;;;;14.19;100.00;101372.81;10403552;28;20046;-81
2021/08/17 20:24:42;;;;;;;5.13;3.85;;;;;;;14.19;100.00;101372.81;10404421;28;20444;-81
2021/08/17 20:29:44;;;;;;;7.50;4.20;;;;;;;14.20;100.00;101373.66;10413892;28;20045;-83
2021/08/17 20:34:46;;;;;;;4.78;3.92;;;;;;;14.20;100.00;101371.06;10414367;28;20520;-82
2021/08/17 20:39:47;;;;;;;4.80;4.07;;;;;;;14.22;100.00;101366.75;10400660;28;20050;-81
2021/08/17 20:44:49;;;;;;;4.03;3.47;;;;;;;14.19;100.00;101371.94;10415725;28;20053;-81
2021/08/17 20:49:51;;;;;;;4.40;4.00;;;;;;;14.18;100.00;101359.75;10413602;28;20406;-81
2021/08/17 20:54:53;;;;;;;3.90;3.55;;;;;;;14.16;100.00;101361.47;10413319;28;20057;-81
2021/08/17 20:59:55;;;;;;;3.58;3.28;;;;;;;14.18;100.00;101370.16;10413278;28;20071;-81
2021/08/17 21:04:56;;;;;;;6.15;4.03;;;;;;;14.15;100.00;101362.34;10413749;28;20066;-80
2021/08/17 21:10:18;;;;;;;4.53;3.28;;;;;;;14.16;100.00;101377.09;10413744;28;20108;-80
2021/08/17 21:15:20;;;;;;;5.03;3.75;;;;;;;14.13;100.00;101375.34;10403432;28;20056;-81
2021/08/17 21:20:22;;;;;;;4.18;3.78;;;;;;;14.09;100.00;101365.78;10393766;28;20056;-81
2021/08/17 21:25:24;;;;;;;5.57;4.43;;;;;;;14.13;100.00;101372.75;10419232;28;20057;-81
2021/08/17 21:30:26;;;;;;;4.72;4.03;;;;;;;14.09;100.00;101364.91;10419966;28;20049;-83
2021/08/17 21:35:27;;;;;;;5.47;3.97;;;;;;;14.09;100.00;101372.69;10433564;28;20053;-82
2021/08/17 21:40:29;;;;;;;4.55;4.15;;;;;;;14.08;100.00;101373.56;10420969;28;20049;-82
2021/08/17 21:45:31;;;;;;;5.03;3.72;;;;;;;14.08;100.00;101377.03;10419277;28;20050;-82
2021/08/17 21:50:32;;;;;;;4.70;3.95;;;;;;;14.06;100.00;101371.78;10445236;28;20129;-82
2021/08/17 21:55:34;;;;;;;5.03;3.88;;;;;;;14.05;100.00;101383.06;10420064;28;20072;-82
2021/08/17 22:00:36;;;;;;;4.65;4.15;;;;;;;14.06;100.00;101373.53;10418262;28;20421;-81
2021/08/17 22:05:38;;;;;;;5.13;4.25;;;;;;;14.06;100.00;101373.53;10419646;28;20053;-82
2021/08/17 22:10:39;;;;;;;5.03;4.07;;;;;;;14.07;100.00;101372.69;10404330;28;20045;-81
2021/08/17 22:15:41;;;;;;;6.53;3.58;;;;;;;14.00;100.00;101366.53;10424645;28;20049;-83
2021/08/17 22:20:43;;;;;;;5.43;4.32;;;;;;;14.05;100.00;101374.41;10421200;28;20107;-82
2021/08/17 22:25:44;;;;;;;4.30;3.90;;;;;;;14.03;100.00;101383.94;10417115;28;20076;-82
2021/08/17 22:30:46;;;;;;;9.15;4.85;;;;;;;14.03;100.00;101381.31;10412545;28;20045;-81
2021/08/17 22:35:48;;;;;;;8.35;4.78;;;;;;;14.05;100.00;101385.66;10430553;28;20056;-82
2021/08/17 22:40:49;;;;;;;4.65;4.10;;;;;;;14.02;100.00;101383.06;10403137;28;20057;-81
2021/08/17 22:45:51;;;;;;;6.00;4.53;;;;;;;14.04;100.00;101385.66;10404204;28;20575;-82
2021/08/17 22:50:52;;;;;;;7.50;4.85;;;;;;;13.99;100.00;101385.63;10405735;28;20050;-81
2021/08/17 22:55:54;;;;;;;7.32;5.70;;;;;;;14.06;100.00;101378.72;10447871;28;20053;-82
2021/08/17 23:00:55;;;;;;;6.10;4.63;;;;;;;14.04;100.00;101376.13;10402735;28;20497;-82